Time;durP1;ratioP1;P1;durP2;ratioP2;P2;SDS_P1;SDS_P2;PMS_P1;PMS_P2;Temp;Humidity;BMP_temperature;BMP_pressure;BME280_temperature;BME280_humidity;BME280_pressure;Samples;Min_cycle;Max_cycle;Signal;HPM_P1;HPM_P2
2022/09/04 00:00:55;;;;;;;7.13;6.45;;;;;;;17.13;71.64;95302.59;5055831;28;20194;-72
2022/09/04 00:03:31;;;;;;;7.07;6.47;;;;;;;17.13;71.17;95305.38;5055197;28;20222;-72
2022/09/04 00:06:00;;;;;;;6.80;6.20;;;;;;;17.11;71.20;95310.56;5054720;28;20256;-72
2022/09/04 00:08:46;;;;;;;7.20;6.43;;;;;;;17.12;71.09;95303.78;5055384;28;20212;-72
2022/09/04 00:11:23;;;;;;;7.03;6.25;;;;;;;17.13;70.88;95307.38;5055192;28;20277;-72
2022/09/04 00:13:55;;;;;;;7.20;6.50;;;;;;;17.12;70.73;95311.34;5055261;28;20201;-72
2022/09/04 00:16:24;;;;;;;6.15;5.68;;;;;;;17.08;70.63;95314.13;5055361;28;20198;-72
2022/09/04 00:18:55;;;;;;;7.35;6.32;;;;;;;17.06;70.74;95308.13;5055171;28;20197;-72
2022/09/04 00:21:27;;;;;;;6.80;6.30;;;;;;;17.02;70.30;95318.44;5054956;28;20201;-72
2022/09/04 00:23:58;;;;;;;7.60;6.85;;;;;;;16.96;70.64;95308.88;5054545;28;20212;-72
2022/09/04 00:26:42;;;;;;;6.68;6.15;;;;;;;16.92;70.74;95313.59;5054704;28;20226;-73
2022/09/04 00:29:14;;;;;;;7.07;6.47;;;;;;;16.91;71.32;95314.81;5054748;28;20205;-73
2022/09/04 00:31:47;;;;;;;7.65;6.95;;;;;;;16.91;71.31;95315.59;5054540;28;20197;-73
2022/09/04 00:34:24;;;;;;;7.25;6.53;;;;;;;16.89;71.64;95320.78;5054427;28;20652;-73
2022/09/04 00:36:54;;;;;;;7.78;7.07;;;;;;;16.89;71.61;95322.75;5054767;28;20558;-73
2022/09/04 00:39:27;;;;;;;9.07;6.45;;;;;;;16.91;72.06;95320.38;5054889;28;20275;-73
2022/09/04 00:42:02;;;;;;;8.00;7.05;;;;;;;16.92;72.00;95313.59;5054223;28;20200;-73
2022/09/04 00:44:57;;;;;;;7.10;6.47;;;;;;;16.92;71.66;95310.81;5054326;28;20189;-73
2022/09/04 00:48:06;;;;;;;7.53;6.78;;;;;;;16.90;71.75;95319.56;5054615;28;20177;-73
2022/09/04 00:50:45;;;;;;;7.57;6.78;;;;;;;16.89;71.67;95311.63;4997465;28;20206;-73
2022/09/04 00:53:31;;;;;;;7.15;6.53;;;;;;;16.88;72.18;95312.78;4997502;28;20611;-73
2022/09/04 00:56:14;;;;;;;7.25;6.50;;;;;;;16.87;71.96;95306.41;4997373;28;20211;-73
2022/09/04 00:58:57;;;;;;;7.15;6.55;;;;;;;16.86;72.01;95309.59;4997344;28;20283;-73
2022/09/04 01:01:25;;;;;;;7.50;6.70;;;;;;;16.82;71.80;95304.00;4997594;28;20210;-73
2022/09/04 01:04:31;;;;;;;7.20;6.55;;;;;;;16.78;71.25;95306.78;4997191;28;20632;-73
2022/09/04 01:07:09;;;;;;;7.40;6.80;;;;;;;16.73;71.14;95314.66;4996961;28;20623;-73
2022/09/04 01:10:05;;;;;;;7.00;6.30;;;;;;;16.69;71.15;95319.38;4997216;28;20206;-73
2022/09/04 01:12:38;;;;;;;7.30;6.43;;;;;;;16.66;71.79;95315.38;4997324;28;20199;-73
2022/09/04 01:15:14;;;;;;;8.02;6.28;;;;;;;16.65;71.73;95324.94;4997418;28;20198;-72
2022/09/04 01:17:47;;;;;;;7.82;6.28;;;;;;;16.63;72.43;95330.09;4997149;28;20195;-72
2022/09/04 01:20:21;;;;;;;6.55;6.00;;;;;;;16.63;72.35;95332.06;4999365;28;20207;-72
2022/09/04 01:23:26;;;;;;;6.75;6.15;;;;;;;16.63;72.17;95320.94;5053970;28;20209;-72
2022/09/04 01:26:00;;;;;;;7.40;6.78;;;;;;;16.63;72.24;95321.75;5048568;28;20221;-72
2022/09/04 01:28:30;;;;;;;6.90;6.05;;;;;;;16.61;71.63;95318.53;5054694;28;20208;-72
2022/09/04 01:31:02;;;;;;;6.32;5.80;;;;;;;16.57;71.56;95321.28;5054023;28;20661;-73
2022/09/04 01:33:33;;;;;;;6.43;5.78;;;;;;;16.56;71.71;95308.56;5053741;28;20194;-73
2022/09/04 01:36:06;;;;;;;6.43;5.90;;;;;;;16.54;71.72;95302.56;5053517;28;20629;-74
2022/09/04 01:38:37;;;;;;;6.15;5.18;;;;;;;16.51;71.23;95303.34;5054320;28;20194;-73
2022/09/04 01:41:13;;;;;;;6.18;5.57;;;;;;;16.49;71.17;95304.94;5053690;28;20197;-73
2022/09/04 01:43:41;;;;;;;5.90;5.30;;;;;;;16.46;71.52;95309.28;5053951;28;20205;-73
2022/09/04 01:46:40;;;;;;;6.95;6.25;;;;;;;16.44;71.24;95308.06;5053474;28;20218;-73
2022/09/04 01:49:13;;;;;;;6.30;5.70;;;;;;;16.37;71.61;95309.56;5053549;28;20217;-73
2022/09/04 01:51:46;;;;;;;6.57;5.93;;;;;;;16.32;71.98;95314.72;5053860;28;20209;-73
2022/09/04 01:54:38;;;;;;;6.20;5.68;;;;;;;16.31;71.99;95310.34;5053734;28;20194;-73
2022/09/04 01:57:14;;;;;;;6.38;5.88;;;;;;;16.32;72.08;95306.38;5053476;28;20213;-73
2022/09/04 01:59:51;;;;;;;6.65;6.03;;;;;;;16.33;72.04;95303.19;5053849;28;20193;-73
2022/09/04 02:02:25;;;;;;;6.35;5.85;;;;;;;16.33;71.83;95300.41;5053387;28;20212;-73
2022/09/04 02:04:54;;;;;;;6.40;5.90;;;;;;;16.30;71.98;95306.75;5053789;28;20193;-73
2022/09/04 02:07:28;;;;;;;5.63;5.13;;;;;;;16.25;71.38;95304.31;5053587;28;20303;-73
2022/09/04 02:10:03;;;;;;;6.40;5.80;;;;;;;16.24;71.80;95294.38;5053722;28;20186;-75
2022/09/04 02:12:35;;;;;;;5.43;4.95;;;;;;;16.27;71.83;95292.81;5053558;28;20189;-74
2022/09/04 02:15:08;;;;;;;5.88;5.38;;;;;;;16.28;71.78;95291.63;5053296;28;20244;-73
2022/09/04 02:17:43;;;;;;;6.40;5.53;;;;;;;16.27;71.40;95290.81;5053697;28;20285;-73
2022/09/04 02:20:18;;;;;;;6.00;5.50;;;;;;;16.26;71.58;95293.97;5053466;28;20190;-73
2022/09/04 02:22:54;;;;;;;6.40;5.60;;;;;;;16.23;71.06;95308.66;5057214;28;20209;-73
2022/09/04 02:25:27;;;;;;;6.72;5.90;;;;;;;16.20;71.24;95290.75;5056882;28;20208;-73
2022/09/04 02:28:04;;;;;;;6.07;5.50;;;;;;;16.15;71.04;95284.72;5057011;28;20209;-73
2022/09/04 02:30:36;;;;;;;7.05;5.70;;;;;;;16.11;71.20;95274.38;5057297;28;20622;-73
2022/09/04 02:33:07;;;;;;;6.10;5.53;;;;;;;16.09;71.32;95276.75;5057098;28;20193;-73
2022/09/04 02:35:48;;;;;;;6.00;5.40;;;;;;;16.07;71.78;95281.09;5057001;28;20193;-73
2022/09/04 02:38:24;;;;;;;6.00;5.50;;;;;;;16.06;72.06;95276.72;5056635;28;20202;-73
2022/09/04 02:40:54;;;;;;;6.20;5.70;;;;;;;16.05;71.85;95287.06;5056641;28;20213;-74
2022/09/04 02:43:46;;;;;;;6.68;5.90;;;;;;;16.06;72.12;95288.63;5056883;28;20212;-73
2022/09/04 02:46:18;;;;;;;7.00;6.40;;;;;;;16.07;71.99;95297.78;5056609;28;20214;-73
2022/09/04 02:48:56;;;;;;;6.10;5.60;;;;;;;16.00;72.20;95301.28;5057423;28;20174;-73
2022/09/04 02:51:30;;;;;;;7.45;6.13;;;;;;;15.97;72.81;95301.25;5056585;28;20289;-73
2022/09/04 02:54:02;;;;;;;6.35;5.85;;;;;;;15.96;73.29;95297.69;5056358;28;20200;-73
2022/09/04 02:56:38;;;;;;;6.57;5.75;;;;;;;16.02;73.25;95300.91;5056225;28;20209;-73
2022/09/04 02:59:21;;;;;;;6.18;5.60;;;;;;;16.06;73.12;95298.97;5056156;28;20201;-73
2022/09/04 03:01:52;;;;;;;6.90;6.20;;;;;;;16.07;73.06;95309.72;5056723;28;20194;-73
2022/09/04 03:04:26;;;;;;;7.00;6.30;;;;;;;16.07;72.81;95311.69;5056103;28;20194;-73
2022/09/04 03:06:56;;;;;;;6.15;5.55;;;;;;;16.05;72.88;95308.47;5056034;28;20233;-73
2022/09/04 03:09:25;;;;;;;6.38;5.80;;;;;;;16.01;72.98;95319.59;5056316;28;20212;-73
2022/09/04 03:11:58;;;;;;;6.93;6.32;;;;;;;15.99;72.63;95316.38;5055863;28;20205;-73
2022/09/04 03:14:33;;;;;;;7.35;6.65;;;;;;;15.99;72.79;95312.81;5056180;28;20205;-73
2022/09/04 03:17:03;;;;;;;6.95;6.32;;;;;;;15.99;72.90;95316.38;5056753;28;20201;-73
2022/09/04 03:19:36;;;;;;;7.32;6.25;;;;;;;15.99;73.32;95315.59;5056342;28;20201;-73
2022/09/04 03:22:07;;;;;;;7.30;6.65;;;;;;;15.97;73.36;95315.16;5056145;28;20204;-73
2022/09/04 03:24:39;;;;;;;7.63;6.85;;;;;;;15.97;73.77;95310.41;5057368;28;20186;-73
2022/09/04 03:27:08;;;;;;;7.55;6.85;;;;;;;15.97;73.22;95304.81;5055802;28;20229;-73
2022/09/04 03:29:44;;;;;;;7.43;6.70;;;;;;;15.95;73.67;95314.75;5055997;28;20209;-73
2022/09/04 03:32:15;;;;;;;7.28;6.60;;;;;;;15.89;73.88;95317.06;5055317;28;20225;-73
2022/09/04 03:34:48;;;;;;;8.00;7.00;;;;;;;15.79;73.61;95315.75;5056173;28;20267;-73
2022/09/04 03:37:24;;;;;;;7.35;6.65;;;;;;;15.74;74.04;95313.34;5055864;28;20194;-73
2022/09/04 03:40:03;;;;;;;7.85;7.05;;;;;;;15.72;74.38;95326.81;5055841;28;20212;-73
2022/09/04 03:42:37;;;;;;;7.78;7.10;;;;;;;15.71;74.49;95313.28;5055454;28;20228;-73
2022/09/04 03:45:17;;;;;;;8.10;7.40;;;;;;;15.70;74.87;95328.38;5055873;28;20201;-73
2022/09/04 03:47:53;;;;;;;7.78;6.97;;;;;;;15.70;75.11;95342.28;5055287;28;20213;-73
2022/09/04 03:50:28;;;;;;;8.45;7.65;;;;;;;15.70;74.94;95347.84;5055701;28;20208;-73
2022/09/04 03:52:59;;;;;;;8.40;7.60;;;;;;;15.70;75.34;95342.28;5055151;28;20532;-73
2022/09/04 03:55:58;;;;;;;9.85;8.18;;;;;;;15.66;75.31;95344.22;5055616;28;20201;-73
2022/09/04 03:58:28;;;;;;;8.73;7.55;;;;;;;15.66;75.59;95342.25;5063515;28;20209;-73
2022/09/04 04:01:04;;;;;;;8.68;7.88;;;;;;;15.70;75.63;95354.22;5055843;28;20205;-72
2022/09/04 04:03:48;;;;;;;8.20;7.40;;;;;;;15.72;76.34;95345.47;5055526;28;20210;-72
2022/09/04 04:06:22;;;;;;;9.05;8.15;;;;;;;15.71;75.61;95349.44;5054899;28;20233;-72
2022/09/04 04:09:04;;;;;;;8.45;7.65;;;;;;;15.71;75.67;95368.91;5055704;28;20205;-73
2022/09/04 04:11:44;;;;;;;8.48;7.60;;;;;;;15.69;75.35;95377.63;5055368;28;20202;-73
2022/09/04 04:14:36;;;;;;;9.77;8.63;;;;;;;15.62;75.29;95378.31;5055109;28;20194;-72
2022/09/04 04:17:13;;;;;;;9.63;8.63;;;;;;;15.67;75.61;95382.75;5055447;28;20287;-73
2022/09/04 04:19:48;;;;;;;9.15;8.07;;;;;;;15.67;75.37;95385.53;5054743;28;20630;-72
2022/09/04 04:22:29;;;;;;;8.95;8.15;;;;;;;15.68;75.45;95391.91;5054694;28;20296;-72
2022/09/04 04:25:06;;;;;;;8.52;7.63;;;;;;;15.68;75.28;95397.47;5054581;28;20692;-72
2022/09/04 04:27:44;;;;;;;8.98;7.55;;;;;;;15.68;74.93;95394.69;5054850;28;20553;-72
2022/09/04 04:30:13;;;;;;;7.70;6.90;;;;;;;15.65;75.06;95393.44;5054492;28;20201;-72
2022/09/04 04:33:23;;;;;;;8.60;7.32;;;;;;;15.66;75.10;95405.41;5055046;28;20194;-72
2022/09/04 04:35:54;;;;;;;7.75;6.82;;;;;;;15.67;74.97;95407.00;4997816;28;20302;-73
2022/09/04 04:38:34;;;;;;;7.43;6.72;;;;;;;15.67;74.59;95399.44;5047021;28;20251;-72
2022/09/04 04:41:20;;;;;;;7.00;6.40;;;;;;;15.63;74.63;95395.78;5054464;28;20241;-72
2022/09/04 04:44:05;;;;;;;7.40;6.80;;;;;;;15.63;75.02;95393.00;5053326;28;20292;-72
2022/09/04 04:46:46;;;;;;;7.53;6.82;;;;;;;15.64;75.20;95383.50;5053599;28;20228;-72
2022/09/04 04:49:34;;;;;;;7.70;7.00;;;;;;;15.67;75.51;95398.66;5054409;28;20201;-72
2022/09/04 04:52:32;;;;;;;7.10;6.50;;;;;;;15.69;75.39;95401.88;5054466;28;20216;-72
2022/09/04 04:55:20;;;;;;;7.43;6.63;;;;;;;15.68;75.71;95409.38;5054443;28;20209;-72
2022/09/04 04:57:55;;;;;;;8.00;7.25;;;;;;;15.67;76.26;95407.78;5054417;28;20198;-72
2022/09/04 05:00:24;;;;;;;7.45;6.75;;;;;;;15.67;75.98;95405.00;5054854;28;20204;-71
2022/09/04 05:02:59;;;;;;;7.35;6.65;;;;;;;15.70;75.57;95414.59;5054407;28;20224;-71
2022/09/04 05:05:52;;;;;;;7.53;6.90;;;;;;;15.66;75.95;95406.19;5054296;28;20625;-72
2022/09/04 05:08:27;;;;;;;7.13;6.28;;;;;;;15.62;76.12;95402.53;5053892;28;20661;-72
2022/09/04 05:10:58;;;;;;;7.38;6.68;;;;;;;15.61;76.35;95398.97;5054182;28;20609;-72
2022/09/04 05:13:35;;;;;;;7.78;7.07;;;;;;;15.62;76.30;95397.78;5053865;28;20205;-72
2022/09/04 05:16:08;;;;;;;7.90;7.20;;;;;;;15.62;76.51;95397.78;5054093;28;20201;-72
2022/09/04 05:18:38;;;;;;;8.07;7.32;;;;;;;15.61;76.65;95389.78;5054856;28;20178;-72
2022/09/04 05:21:11;;;;;;;8.93;8.05;;;;;;;15.63;76.83;95398.56;5054427;28;20205;-72
2022/09/04 05:23:43;;;;;;;8.57;7.70;;;;;;;15.65;76.81;95407.34;5054339;28;20201;-72
2022/09/04 05:26:14;;;;;;;8.95;8.07;;;;;;;15.66;76.53;95416.53;5053725;28;20194;-72
2022/09/04 05:28:48;;;;;;;8.95;8.13;;;;;;;15.65;76.95;95421.25;5054245;28;20226;-72
2022/09/04 05:31:22;;;;;;;8.05;7.25;;;;;;;15.67;76.96;95423.69;5054693;28;20189;-72
2022/09/04 05:33:56;;;;;;;8.57;7.78;;;;;;;15.71;77.05;95418.97;5053793;28;20194;-72
2022/09/04 05:36:32;;;;;;;8.30;7.60;;;;;;;15.72;77.08;95412.22;5054263;28;20193;-72
2022/09/04 05:39:06;;;;;;;8.45;7.65;;;;;;;15.73;77.03;95419.41;5054296;28;20201;-72
2022/09/04 05:41:42;;;;;;;7.22;6.63;;;;;;;15.73;77.03;95427.75;5053768;28;20209;-72
2022/09/04 05:44:25;;;;;;;7.75;7.05;;;;;;;15.73;76.89;95428.53;5053555;28;20707;-72
2022/09/04 05:47:04;;;;;;;9.43;7.88;;;;;;;15.76;77.00;95416.66;5053914;28;20213;-72
2022/09/04 05:49:42;;;;;;;8.70;7.82;;;;;;;15.82;77.14;95415.13;5053567;28;20197;-72
2022/09/04 05:52:29;;;;;;;9.05;8.15;;;;;;;15.85;76.96;95414.38;5054696;28;20193;-72
2022/09/04 05:55:09;;;;;;;9.65;8.48;;;;;;;15.87;76.81;95409.25;5054014;28;20640;-72
2022/09/04 05:57:42;;;;;;;10.60;9.60;;;;;;;15.92;77.45;95418.44;5090589;28;20188;-72
2022/09/04 06:00:11;;;;;;;9.93;8.93;;;;;;;15.93;77.95;95406.13;5057607;28;20197;-72
2022/09/04 06:03:15;;;;;;;9.73;8.80;;;;;;;15.91;77.42;95398.16;5057816;28;20189;-72
2022/09/04 06:06:14;;;;;;;10.07;9.00;;;;;;;15.91;77.38;95389.03;5057967;28;20296;-72
2022/09/04 06:09:01;;;;;;;10.13;9.07;;;;;;;15.94;78.14;95394.63;5058398;28;20222;-72
2022/09/04 06:11:40;;;;;;;10.40;9.40;;;;;;;15.94;77.73;95394.63;5057223;28;20193;-73
2022/09/04 06:14:17;;;;;;;11.15;10.10;;;;;;;15.98;78.04;95392.69;5057035;28;20308;-73
2022/09/04 06:16:59;;;;;;;11.70;10.50;;;;;;;16.02;77.87;95395.50;5057513;28;20217;-73
2022/09/04 06:19:39;;;;;;;11.90;10.70;;;;;;;16.04;77.99;95396.72;5057514;28;20202;-73
2022/09/04 06:22:35;;;;;;;12.52;11.25;;;;;;;16.09;77.69;95390.81;5057271;28;20198;-74
2022/09/04 06:25:18;;;;;;;12.82;11.55;;;;;;;16.15;77.62;95396.84;5057027;28;20206;-73
2022/09/04 06:28:01;;;;;;;14.55;11.73;;;;;;;16.18;77.93;95384.16;5057135;28;20209;-73
2022/09/04 06:30:32;;;;;;;12.52;11.32;;;;;;;16.23;77.62;95383.78;5057299;28;20197;-73
2022/09/04 06:33:28;;;;;;;16.20;13.50;;;;;;;16.24;77.93;95388.19;5058150;28;20618;-71
2022/09/04 06:36:12;;;;;;;14.95;13.10;;;;;;;16.27;77.90;95393.00;5047080;28;20205;-73
2022/09/04 06:38:50;;;;;;;13.23;11.80;;;;;;;16.33;78.05;95388.66;5057184;28;20208;-73
2022/09/04 06:41:41;;;;;;;13.15;11.88;;;;;;;16.34;77.61;95391.09;5057119;28;20201;-73
2022/09/04 06:44:16;;;;;;;13.98;12.48;;;;;;;16.40;77.46;95388.75;5056776;28;20200;-73
2022/09/04 06:46:46;;;;;;;14.73;13.25;;;;;;;16.41;77.44;95387.56;5056944;28;20201;-73
2022/09/04 06:49:18;;;;;;;14.60;13.10;;;;;;;16.42;77.68;95393.94;5056490;28;20201;-73
2022/09/04 06:51:55;;;;;;;14.23;12.73;;;;;;;16.42;77.37;95393.94;5056763;28;20213;-73
2022/09/04 06:54:33;;;;;;;14.07;12.68;;;;;;;16.46;77.05;95386.44;5056872;28;20205;-73
2022/09/04 06:57:12;;;;;;;13.68;12.30;;;;;;;16.52;77.34;95390.44;5056445;28;20656;-73
2022/09/04 07:00:04;;;;;;;13.25;12.02;;;;;;;16.60;77.51;95381.78;5057240;28;20208;-72
2022/09/04 07:03:01;;;;;;;16.67;12.05;;;;;;;16.69;77.50;95387.03;5042542;28;20238;-72
2022/09/04 07:05:31;;;;;;;14.07;12.63;;;;;;;16.77;77.28;95382.34;5056282;28;20194;-73
2022/09/04 07:08:05;;;;;;;13.57;12.15;;;;;;;16.81;77.05;95377.59;5055472;28;20233;-72
2022/09/04 07:10:33;;;;;;;14.55;13.05;;;;;;;16.87;76.87;95384.41;5056750;28;20206;-72
2022/09/04 07:13:27;;;;;;;15.35;12.60;;;;;;;16.91;77.04;95376.88;5056164;28;20208;-72
2022/09/04 07:16:08;;;;;;;13.35;12.07;;;;;;;16.99;76.76;95386.09;5055854;28;20210;-72
2022/09/04 07:18:53;;;;;;;14.13;12.73;;;;;;;17.04;76.34;95388.53;5055912;28;20212;-73
2022/09/04 07:21:27;;;;;;;15.00;12.25;;;;;;;17.08;75.76;95390.16;5056105;28;20194;-73
2022/09/04 07:24:01;;;;;;;12.77;11.55;;;;;;;17.14;76.06;95385.03;5056117;28;20275;-73
2022/09/04 07:26:34;;;;;;;12.95;11.65;;;;;;;17.22;76.06;95380.31;5056300;28;20226;-73
2022/09/04 07:29:26;;;;;;;12.00;10.88;;;;;;;17.30;76.16;95381.94;5055941;28;20205;-73
2022/09/04 07:31:58;;;;;;;12.40;11.15;;;;;;;17.32;75.12;95380.38;5055899;28;20201;-73
2022/09/04 07:34:28;;;;;;;14.65;13.02;;;;;;;17.37;75.25;95379.19;5056485;28;20217;-73
2022/09/04 07:37:00;;;;;;;15.00;12.75;;;;;;;17.42;74.79;95384.41;5055620;28;20209;-73
2022/09/04 07:39:31;;;;;;;13.95;12.55;;;;;;;17.50;74.94;95388.03;5056066;28;20193;-73
2022/09/04 07:42:02;;;;;;;16.13;12.43;;;;;;;17.62;75.09;95400.84;5055400;28;20237;-72
2022/09/04 07:44:35;;;;;;;14.73;13.20;;;;;;;17.71;74.99;95410.44;5056099;28;20201;-73
2022/09/04 07:47:11;;;;;;;13.73;12.32;;;;;;;17.75;74.05;95410.47;5055673;28;20194;-73
2022/09/04 07:49:48;;;;;;;14.38;12.57;;;;;;;17.79;73.46;95414.09;5055447;28;20542;-73
2022/09/04 07:52:23;;;;;;;14.35;12.82;;;;;;;17.91;74.63;95407.41;5055352;28;20201;-72
2022/09/04 07:55:06;;;;;;;12.82;11.43;;;;;;;18.08;74.46;95403.84;5055709;28;20202;-73
2022/09/04 07:57:51;;;;;;;15.30;12.82;;;;;;;18.19;73.59;95415.06;5055395;28;20205;-73
2022/09/04 08:00:21;;;;;;;13.45;11.85;;;;;;;18.24;73.29;95409.13;5055537;28;20194;-73
2022/09/04 08:03:04;;;;;;;13.93;12.52;;;;;;;18.37;73.71;95407.53;5055497;28;20193;-73
2022/09/04 08:05:32;;;;;;;13.43;11.75;;;;;;;18.50;73.86;95416.34;5054908;28;20208;-73
2022/09/04 08:08:24;;;;;;;16.98;13.02;;;;;;;18.63;73.26;95427.97;5054989;28;20661;-73
2022/09/04 08:11:04;;;;;;;14.57;12.85;;;;;;;18.71;73.04;95427.59;5028715;28;20210;-73
2022/09/04 08:13:44;;;;;;;15.23;13.63;;;;;;;18.84;72.69;95430.78;5054963;28;20212;-73
2022/09/04 08:16:17;;;;;;;17.85;14.48;;;;;;;18.92;71.70;95429.63;5055139;28;20272;-73
2022/09/04 08:19:02;;;;;;;17.85;15.10;;;;;;;19.04;72.86;95419.25;5054904;28;20185;-73
2022/09/04 08:21:30;;;;;;;19.52;16.27;;;;;;;19.14;71.31;95426.84;5054858;28;20197;-73
2022/09/04 08:24:18;;;;;;;18.38;16.30;;;;;;;19.21;69.55;95426.84;5054665;28;20197;-73
2022/09/04 08:26:54;;;;;;;19.02;16.55;;;;;;;19.22;69.21;95422.84;5054908;28;20202;-73
2022/09/04 08:29:38;;;;;;;19.48;14.95;;;;;;;19.23;69.36;95418.84;5054935;28;20660;-73
2022/09/04 08:32:17;;;;;;;17.38;15.10;;;;;;;19.29;69.19;95414.44;5054497;28;20205;-73
2022/09/04 08:35:09;;;;;;;16.38;14.07;;;;;;;19.42;69.16;95412.81;5055309;28;20206;-73
2022/09/04 08:37:44;;;;;;;17.33;14.05;;;;;;;19.48;68.35;95421.59;5054603;28;20200;-73
2022/09/04 08:40:33;;;;;;;15.32;13.73;;;;;;;19.55;69.25;95410.41;5054289;28;20205;-73
2022/09/04 08:43:27;;;;;;;14.48;13.00;;;;;;;19.59;68.20;95408.38;5054375;28;20209;-73
2022/09/04 08:46:17;;;;;;;15.30;13.48;;;;;;;19.68;68.49;95408.00;5054312;28;20201;-73
2022/09/04 08:49:10;;;;;;;14.00;12.52;;;;;;;19.84;67.15;95410.34;5054904;28;20229;-73
2022/09/04 08:52:05;;;;;;;13.45;12.05;;;;;;;19.93;66.62;95403.13;5054801;28;20247;-73
2022/09/04 08:55:24;;;;;;;13.23;11.80;;;;;;;20.05;66.51;95398.28;5052871;28;20719;-73
2022/09/04 08:58:22;;;;;;;9.82;8.82;;;;;;;20.20;65.55;95385.81;4969053;28;20286;-73
2022/09/04 09:01:20;;;;;;;8.73;7.88;;;;;;;20.39;62.17;95381.72;5030529;28;20290;-72
2022/09/04 09:04:13;;;;;;;7.30;6.55;;;;;;;20.46;60.25;95390.06;5010335;28;20205;-74
2022/09/04 09:07:25;;;;;;;7.50;6.78;;;;;;;20.50;60.69;95396.47;5054363;28;20240;-74
2022/09/04 09:10:25;;;;;;;7.18;6.55;;;;;;;20.56;60.01;95394.06;5054088;28;20244;-73
2022/09/04 09:13:19;;;;;;;8.40;7.60;;;;;;;20.64;60.39;95393.59;5041608;28;20209;-73
2022/09/04 09:16:12;;;;;;;7.55;6.85;;;;;;;20.75;60.21;95396.31;5053955;28;20201;-73
2022/09/04 09:18:50;;;;;;;10.05;9.15;;;;;;;20.90;60.33;95397.00;5054340;28;20198;-73
2022/09/04 09:21:28;;;;;;;10.55;9.48;;;;;;;20.98;59.58;95397.75;5055321;28;20186;-72
2022/09/04 09:24:15;;;;;;;8.75;7.95;;;;;;;21.04;60.05;95401.72;5054683;28;20633;-73
2022/09/04 09:26:53;;;;;;;8.10;7.30;;;;;;;21.05;59.30;95389.28;5054696;28;20214;-73
2022/09/04 09:29:45;;;;;;;7.05;6.45;;;;;;;21.24;60.35;95380.31;5054115;28;20210;-72
2022/09/04 09:32:44;;;;;;;7.28;6.57;;;;;;;21.37;58.87;95383.41;5059026;28;20186;-72
2022/09/04 09:36:01;;;;;;;6.07;5.57;;;;;;;21.35;58.24;95381.03;5045889;28;20204;-72
2022/09/04 09:39:02;;;;;;;7.32;6.43;;;;;;;21.38;58.50;95374.56;5051590;28;20519;-73
2022/09/04 09:41:59;;;;;;;7.53;6.90;;;;;;;21.45;58.97;95376.53;5057209;28;20530;-72
2022/09/04 09:44:55;;;;;;;6.90;6.30;;;;;;;21.54;59.00;95370.44;5058145;28;20212;-72
2022/09/04 09:47:46;;;;;;;7.53;6.82;;;;;;;21.74;58.45;95379.03;5058270;28;20522;-72
2022/09/04 09:50:32;;;;;;;7.55;6.85;;;;;;;21.90;56.82;95364.44;5057810;28;20202;-72
2022/09/04 09:53:38;;;;;;;7.95;7.15;;;;;;;22.01;57.11;95353.84;5058276;28;20217;-72
2022/09/04 09:56:24;;;;;;;7.88;7.07;;;;;;;22.10;57.37;95348.50;5058651;28;20194;-73
2022/09/04 09:59:17;;;;;;;7.53;6.82;;;;;;;22.23;55.99;95349.56;5041573;28;20550;-72
2022/09/04 10:02:12;;;;;;;7.65;6.90;;;;;;;22.33;57.63;95343.03;5057541;28;20198;-72
2022/09/04 10:05:09;;;;;;;7.40;6.70;;;;;;;22.46;57.29;95348.06;5057715;28;20201;-73
2022/09/04 10:07:59;;;;;;;7.80;7.10;;;;;;;22.45;56.64;95352.09;5057294;28;20689;-72
2022/09/04 10:10:50;;;;;;;8.32;7.22;;;;;;;22.53;56.13;95353.56;5057816;28;20194;-72
2022/09/04 10:13:36;;;;;;;8.00;7.30;;;;;;;22.63;55.74;95354.63;5056085;28;20221;-73
2022/09/04 10:16:41;;;;;;;7.47;6.78;;;;;;;22.76;56.23;95347.19;5057113;28;20205;-72
2022/09/04 10:19:22;;;;;;;8.38;7.50;;;;;;;22.80;54.64;95340.31;5051195;28;20296;-73
2022/09/04 10:22:24;;;;;;;6.85;6.20;;;;;;;22.87;57.29;95336.56;5057404;28;20193;-72
2022/09/04 10:25:43;;;;;;;7.97;7.03;;;;;;;22.99;55.03;95323.97;5057022;28;20216;-72
2022/09/04 10:29:04;;;;;;;7.80;7.10;;;;;;;22.84;55.68;95334.63;4999591;28;20209;-71
2022/09/04 10:31:54;;;;;;;8.10;7.15;;;;;;;22.82;55.54;95335.03;5059084;28;20205;-72
2022/09/04 10:34:46;;;;;;;9.65;7.30;;;;;;;22.74;56.87;95339.19;5057708;28;20186;-73
2022/09/04 10:37:29;;;;;;;8.13;7.32;;;;;;;22.73;56.57;95336.78;5049859;28;20246;-72
2022/09/04 10:43:08;;;;;;;10.82;9.15;;;;;;;22.99;55.38;95321.94;5056215;28;20208;-71
2022/09/04 10:45:37;;;;;;;9.38;8.45;;;;;;;22.89;57.05;95319.28;5056943;28;20190;-72
2022/09/04 10:48:28;;;;;;;8.05;7.25;;;;;;;23.01;57.15;95311.03;5056863;28;20193;-71
2022/09/04 10:51:07;;;;;;;7.60;6.90;;;;;;;22.99;55.82;95307.88;5057436;28;20525;-72
2022/09/04 10:53:50;;;;;;;7.80;6.95;;;;;;;22.90;56.79;95304.78;5056956;28;20243;-71
2022/09/04 10:56:20;;;;;;;7.68;6.97;;;;;;;23.04;56.85;95315.81;5056579;28;20559;-71
2022/09/04 10:59:26;;;;;;;7.50;6.80;;;;;;;23.17;56.23;95306.78;5056441;28;20198;-71
2022/09/04 11:02:31;;;;;;;8.00;7.20;;;;;;;23.19;55.82;95296.66;5041911;28;20198;-71
2022/09/04 11:05:25;;;;;;;7.60;6.90;;;;;;;23.44;54.65;95296.22;5029681;28;20283;-71
2022/09/04 11:08:12;;;;;;;7.05;6.35;;;;;;;23.44;53.59;95284.16;5056241;28;20275;-72
2022/09/04 11:11:02;;;;;;;7.05;6.35;;;;;;;23.46;55.28;95278.91;5056027;28;20633;-72
2022/09/04 11:14:07;;;;;;;7.45;6.85;;;;;;;23.48;54.01;95291.31;5087539;28;20209;-72
2022/09/04 11:17:07;;;;;;;7.63;6.88;;;;;;;23.47;52.72;95286.91;5056535;28;20228;-71
2022/09/04 11:20:02;;;;;;;7.57;6.90;;;;;;;23.52;54.19;95286.38;5039577;28;20209;-71
2022/09/04 11:22:54;;;;;;;7.32;6.72;;;;;;;23.63;52.89;95274.91;5056225;28;20204;-72
2022/09/04 11:25:54;;;;;;;7.57;6.60;;;;;;;23.66;53.63;95273.25;5055946;28;20202;-72
2022/09/04 11:29:02;;;;;;;7.85;6.68;;;;;;;23.68;53.88;95280.09;5049768;28;20217;-72
2022/09/04 11:31:35;;;;;;;6.75;6.10;;;;;;;23.76;53.47;95287.16;5013444;28;20213;-70
2022/09/04 11:34:49;;;;;;;6.07;5.57;;;;;;;23.90;51.32;95274.81;5089575;28;20217;-70
2022/09/04 11:37:37;;;;;;;8.43;5.90;;;;;;;23.98;52.64;95267.00;5057567;28;20201;-69
2022/09/04 11:40:24;;;;;;;6.53;5.60;;;;;;;24.13;51.95;95262.63;5057519;28;20208;-69
2022/09/04 11:43:02;;;;;;;6.53;5.90;;;;;;;24.12;51.10;95268.72;5054109;28;20205;-69
2022/09/04 11:46:03;;;;;;;6.50;5.82;;;;;;;24.07;51.68;95260.75;5056495;28;20225;-69
2022/09/04 11:49:06;;;;;;;6.50;5.90;;;;;;;24.10;51.35;95269.13;5024503;28;20212;-69
2022/09/04 11:52:07;;;;;;;6.10;5.60;;;;;;;23.91;49.80;95264.34;5042050;28;20201;-69
2022/09/04 11:55:01;;;;;;;5.80;5.30;;;;;;;23.63;51.07;95260.84;5056470;28;20572;-70
2022/09/04 11:57:39;;;;;;;5.55;5.05;;;;;;;23.57;51.05;95254.16;5056528;28;20280;-69
2022/09/04 12:00:10;;;;;;;6.10;5.50;;;;;;;23.59;51.88;95257.31;5055607;28;20216;-69
2022/09/04 12:03:02;;;;;;;5.43;5.00;;;;;;;23.62;52.05;95241.59;5055946;28;20225;-69
2022/09/04 12:05:55;;;;;;;5.10;4.70;;;;;;;23.60;51.59;95233.56;5055464;28;20208;-69
2022/09/04 12:08:49;;;;;;;5.75;5.20;;;;;;;23.70;51.83;95231.78;5088343;28;20228;-69
2022/09/04 12:11:46;;;;;;;6.07;5.57;;;;;;;23.95;51.80;95234.84;5055563;28;20193;-69
2022/09/04 12:14:38;;;;;;;5.90;5.40;;;;;;;23.95;51.33;95228.44;5040582;28;20224;-70
2022/09/04 12:17:36;;;;;;;5.43;4.97;;;;;;;23.84;49.35;95225.06;5060844;28;20194;-70
2022/09/04 12:20:30;;;;;;;6.22;5.03;;;;;;;23.64;49.92;95225.84;5075360;28;20280;-69
2022/09/04 12:23:12;;;;;;;5.43;5.03;;;;;;;23.49;51.57;95238.59;5060087;28;20399;-69
2022/09/04 12:26:01;;;;;;;5.93;5.35;;;;;;;23.39;52.82;95229.19;5059875;28;20517;-69
2022/09/04 12:29:09;;;;;;;5.55;4.90;;;;;;;23.32;50.70;95236.97;5059541;28;20541;-69
2022/09/04 12:31:57;;;;;;;5.13;4.68;;;;;;;23.23;51.47;95235.50;5091164;28;20212;-69
2022/09/04 12:34:45;;;;;;;5.03;4.63;;;;;;;23.14;52.37;95231.69;5058958;28;20201;-69
2022/09/04 12:37:34;;;;;;;5.88;5.45;;;;;;;23.11;53.83;95235.34;5060122;28;20196;-70
2022/09/04 12:40:30;;;;;;;5.38;4.85;;;;;;;23.04;54.27;95236.28;5056242;28;20198;-69
2022/09/04 12:43:04;;;;;;;5.30;4.32;;;;;;;22.99;54.82;95236.78;5055508;28;20197;-70